Yellowfin — WCW2778 — position and weather

sailwx.info

Track history (hours):
 
Tides and Currents Weather Stations Pressure Air Temp Water Temp Dewpoint Dewpoint Depression Visibility Wind Speed Wind Dir Waves Ship Positions

Oceanographic research ship Yellowfin (USA)

Detailed information on ship capabilities available from University of Delaware's Ocean Information Center.

Owner: CALIFORNIA STATE UNIVERSITY, TERMINAL ISLAND, CA. More information available from US FCC via Universal Licensing System and Coast Guard Vessel Documentation Center.

Last reported at 2018-Jun-20 00:03 UTC. Time now 2018-Jun-21 06:51 UTC.
Position N 33°44' W 118°16'.

Length 25 m; draft 2.5 m.

Type: Other ship. MMSI: 367000160.

Date/timePositionNaut miles runAvg speedWind from/ knotsBaromVisibWave heightAir tempDewpointWater temp
2018-Jun-20 00:03N 33°44' W 118°16'0 0.3
2018-Jun-19 23:59N 33°44' W 118°16'3 5.6
2018-Jun-19 23:30N 33°42' W 118°17'5 9.3
2018-Jun-19 22:59N 33°40' W 118°23'5 9.3
2018-Jun-19 22:30N 33°40' W 118°28'5 0.2
2018-Jun-18 16:47N 33°38' W 118°22'1 3.8
2018-Jun-18 16:30N 33°39' W 118°21'1 1.8
2018-Jun-18 15:56N 33°40' W 118°20'4 8.4
2018-Jun-18 15:27N 33°37' W 118°17'3 5.8
2018-Jun-18 15:00N 33°39' W 118°16'4 8.5
2018-Jun-18 14:30N 33°43' W 118°16'  
2018-Jun-16 00:03N 33°44' W 118°16'0 0.1
2018-Jun-16 00:00N 33°44' W 118°16'3 6.1
2018-Jun-15 23:29N 33°41' W 118°17'3 6.4
2018-Jun-15 23:00N 33°39' W 118°20'2 4.2
2018-Jun-15 22:30N 33°37' W 118°21'5 4.2
2018-Jun-15 21:14N 33°33' W 118°26'3 1.2
2018-Jun-15 18:58N 33°32' W 118°23'2 4.4
2018-Jun-15 18:28N 33°33' W 118°22'2 4.4
2018-Jun-15 18:00N 33°35' W 118°20'2 3.6
2018-Jun-15 17:30N 33°36' W 118°18'1 3.0
2018-Jun-15 17:00N 33°35' W 118°17'2 4.6
2018-Jun-15 16:30N 33°33' W 118°19'3 4.4
2018-Jun-15 15:47N 33°31' W 118°22'7 0.5
2018-Jun-15 01:36N 33°27' W 118°29'0 0.0
2018-Jun-15 01:08N 33°27' W 118°29'0 0.0
2018-Jun-15 01:00N 33°27' W 118°29'0 0.0
2018-Jun-15 00:28N 33°27' W 118°29'0 0.0
2018-Jun-14 23:15N 33°27' W 118°29'2 7.5
2018-Jun-14 23:00N 33°27' W 118°27'4 8.7
2018-Jun-14 22:30N 33°27' W 118°22'2 3.2
2018-Jun-14 22:00N 33°28' W 118°21'2 4.3
2018-Jun-14 21:30N 33°30' W 118°19'2 4.6
2018-Jun-14 21:00N 33°32' W 118°17'2 4.1
2018-Jun-14 20:30N 33°30' W 118°15'2 4.1
2018-Jun-14 19:58N 33°29' W 118°17'3 4.5
2018-Jun-14 19:25N 33°27' W 118°19'1 3.2
2018-Jun-14 18:59N 33°27' W 118°20'2 4.5
2018-Jun-14 18:30N 33°28' W 118°19'2 4.4
2018-Jun-14 17:58N 33°30' W 118°17'2 4.5
2018-Jun-14 17:30N 33°32' W 118°15'2 4.3
2018-Jun-14 17:00N 33°33' W 118°13'11 0.6
2018-Jun-13 21:36N 33°44' W 118°16'0 0.1
2018-Jun-13 21:30N 33°44' W 118°16'0 0.0
2018-Jun-13 21:00N 33°44' W 118°16'3 6.9
2018-Jun-13 20:30N 33°41' W 118°17'5 9.7
2018-Jun-13 19:58N 33°37' W 118°20'4 9.0
2018-Jun-13 19:30N 33°34' W 118°24'0 0.6
2018-Jun-13 19:00N 33°33' W 118°24'0 0.3
2018-Jun-13 18:15N 33°33' W 118°24'0 0.4
2018-Jun-13 18:00N 33°33' W 118°24'0 0.3
2018-Jun-13 16:57N 33°33' W 118°24'0 0.3
2018-Jun-13 16:30N 33°33' W 118°24'1 1.2
2018-Jun-13 15:59N 33°34' W 118°24'4 8.9
2018-Jun-13 15:30N 33°37' W 118°21'4 8.9
2018-Jun-13 15:00N 33°40' W 118°17'3 5.7
2018-Jun-13 14:30N 33°43' W 118°16'1 2.5
2018-Jun-13 14:00N 33°44' W 118°16'0 0.0
2018-Jun-12 21:57N 33°44' W 118°16'1 1.2
2018-Jun-12 21:30N 33°45' W 118°17'1 2.8
2018-Jun-12 21:00N 33°46' W 118°16'2 4.4
2018-Jun-12 20:30N 33°44' W 118°16'1 1.5
2018-Jun-12 20:00N 33°44' W 118°15'1 1.7
2018-Jun-12 19:30N 33°43' W 118°15'1 1.7
2018-Jun-12 19:00N 33°43' W 118°15'1 2.9
2018-Jun-12 18:30N 33°43' W 118°17'1 2.4
2018-Jun-12 18:00N 33°44' W 118°17'1 2.6
2018-Jun-12 17:30N 33°46' W 118°17'1 1.7
2018-Jun-12 17:00N 33°46' W 118°16'1 2.3
2018-Jun-12 16:30N 33°47' W 118°15'1 1.2
2018-Jun-12 16:00N 33°46' W 118°14'1 2.0
2018-Jun-12 15:30N 33°46' W 118°16'0 0.0
2018-Jun-12 15:00N 33°46' W 118°16'2 4.4
2018-Jun-12 14:30N 33°44' W 118°16'0 0.7
2018-Jun-12 14:00N 33°44' W 118°16'  
Track history (hours):
 
Tides and Currents Weather Stations Pressure Air Temp Water Temp Dewpoint Dewpoint Depression Visibility Wind Speed Wind Dir Waves Ship Positions

Oceanographic research ship Yellowfin (USA)

Detailed information on ship capabilities available from University of Delaware's Ocean Information Center.

Owner: CALIFORNIA STATE UNIVERSITY, TERMINAL ISLAND, CA. More information available from US FCC via Universal Licensing System and Coast Guard Vessel Documentation Center.

Last reported at 2018-Jun-20 00:03 UTC. Time now 2018-Jun-21 06:51 UTC.
Position N 33°44' W 118°16'.

Length 25 m; draft 2.5 m.

Type: Other ship. MMSI: 367000160.

Date/timePositionNaut miles runAvg speedWind from/ knotsBaromVisibWave heightAir tempDewpointWater temp
2018-Jun-20 00:03N 33°44' W 118°16'0 0.3
2018-Jun-19 23:59N 33°44' W 118°16'3 5.6
2018-Jun-19 23:30N 33°42' W 118°17'5 9.3
2018-Jun-19 22:59N 33°40' W 118°23'5 9.3
2018-Jun-19 22:30N 33°40' W 118°28'5 0.2
2018-Jun-18 16:47N 33°38' W 118°22'1 3.8
2018-Jun-18 16:30N 33°39' W 118°21'1 1.8
2018-Jun-18 15:56N 33°40' W 118°20'4 8.4
2018-Jun-18 15:27N 33°37' W 118°17'3 5.8
2018-Jun-18 15:00N 33°39' W 118°16'4 8.5
2018-Jun-18 14:30N 33°43' W 118°16'  
2018-Jun-16 00:03N 33°44' W 118°16'0 0.1
2018-Jun-16 00:00N 33°44' W 118°16'3 6.1
2018-Jun-15 23:29N 33°41' W 118°17'3 6.4
2018-Jun-15 23:00N 33°39' W 118°20'2 4.2
2018-Jun-15 22:30N 33°37' W 118°21'5 4.2
2018-Jun-15 21:14N 33°33' W 118°26'3 1.2
2018-Jun-15 18:58N 33°32' W 118°23'2 4.4
2018-Jun-15 18:28N 33°33' W 118°22'2 4.4
2018-Jun-15 18:00N 33°35' W 118°20'2 3.6
2018-Jun-15 17:30N 33°36' W 118°18'1 3.0
2018-Jun-15 17:00N 33°35' W 118°17'2 4.6
2018-Jun-15 16:30N 33°33' W 118°19'3 4.4
2018-Jun-15 15:47N 33°31' W 118°22'7 0.5
2018-Jun-15 01:36N 33°27' W 118°29'0 0.0
2018-Jun-15 01:08N 33°27' W 118°29'0 0.0
2018-Jun-15 01:00N 33°27' W 118°29'0 0.0
2018-Jun-15 00:28N 33°27' W 118°29'0 0.0
2018-Jun-14 23:15N 33°27' W 118°29'2 7.5
2018-Jun-14 23:00N 33°27' W 118°27'4 8.7
2018-Jun-14 22:30N 33°27' W 118°22'2 3.2
2018-Jun-14 22:00N 33°28' W 118°21'2 4.3
2018-Jun-14 21:30N 33°30' W 118°19'2 4.6
2018-Jun-14 21:00N 33°32' W 118°17'2 4.1
2018-Jun-14 20:30N 33°30' W 118°15'2 4.1
2018-Jun-14 19:58N 33°29' W 118°17'3 4.5
2018-Jun-14 19:25N 33°27' W 118°19'1 3.2
2018-Jun-14 18:59N 33°27' W 118°20'2 4.5
2018-Jun-14 18:30N 33°28' W 118°19'2 4.4
2018-Jun-14 17:58N 33°30' W 118°17'2 4.5
2018-Jun-14 17:30N 33°32' W 118°15'2 4.3
2018-Jun-14 17:00N 33°33' W 118°13'11 0.6
2018-Jun-13 21:36N 33°44' W 118°16'0 0.1
2018-Jun-13 21:30N 33°44' W 118°16'0 0.0
2018-Jun-13 21:00N 33°44' W 118°16'3 6.9
2018-Jun-13 20:30N 33°41' W 118°17'5 9.7
2018-Jun-13 19:58N 33°37' W 118°20'4 9.0
2018-Jun-13 19:30N 33°34' W 118°24'0 0.6
2018-Jun-13 19:00N 33°33' W 118°24'0 0.3
2018-Jun-13 18:15N 33°33' W 118°24'0 0.4
2018-Jun-13 18:00N 33°33' W 118°24'0 0.3
2018-Jun-13 16:57N 33°33' W 118°24'0 0.3
2018-Jun-13 16:30N 33°33' W 118°24'1 1.2
2018-Jun-13 15:59N 33°34' W 118°24'4 8.9
2018-Jun-13 15:30N 33°37' W 118°21'4 8.9
2018-Jun-13 15:00N 33°40' W 118°17'3 5.7
2018-Jun-13 14:30N 33°43' W 118°16'1 2.5
2018-Jun-13 14:00N 33°44' W 118°16'0 0.0
2018-Jun-12 21:57N 33°44' W 118°16'1 1.2
2018-Jun-12 21:30N 33°45' W 118°17'1 2.8
2018-Jun-12 21:00N 33°46' W 118°16'2 4.4
2018-Jun-12 20:30N 33°44' W 118°16'1 1.5
2018-Jun-12 20:00N 33°44' W 118°15'1 1.7
2018-Jun-12 19:30N 33°43' W 118°15'1 1.7
2018-Jun-12 19:00N 33°43' W 118°15'1 2.9
2018-Jun-12 18:30N 33°43' W 118°17'1 2.4
2018-Jun-12 18:00N 33°44' W 118°17'1 2.6
2018-Jun-12 17:30N 33°46' W 118°17'1 1.7
2018-Jun-12 17:00N 33°46' W 118°16'1 2.3
2018-Jun-12 16:30N 33°47' W 118°15'1 1.2
2018-Jun-12 16:00N 33°46' W 118°14'1 2.0
2018-Jun-12 15:30N 33°46' W 118°16'0 0.0
2018-Jun-12 15:00N 33°46' W 118°16'2 4.4
2018-Jun-12 14:30N 33°44' W 118°16'0 0.7
2018-Jun-12 14:00N 33°44' W 118°16'  

Dump ship's entire track history